createdAt,value
2018-12-26T00:00:31.780Z,10.77
2018-12-26T00:02:59.925Z,8.17
2018-12-26T00:05:28.014Z,10.47
2018-12-26T00:07:56.191Z,9.43
2018-12-26T00:10:24.242Z,10.60
2018-12-26T00:12:52.298Z,8.67
2018-12-26T00:15:20.347Z,10.90
2018-12-26T00:17:48.413Z,9.60
2018-12-26T00:20:16.461Z,8.33
2018-12-26T00:22:44.520Z,11.10
2018-12-26T00:25:12.616Z,10.03
2018-12-26T00:27:40.790Z,7.30
2018-12-26T00:30:08.878Z,8.43
2018-12-26T00:32:36.930Z,8.10
2018-12-26T00:35:04.982Z,14.68
2018-12-26T00:37:33.049Z,11.77
2018-12-26T00:40:01.106Z,10.03
2018-12-26T00:42:29.146Z,6.90
2018-12-26T00:44:57.219Z,8.67
2018-12-26T00:47:25.275Z,10.38
2018-12-26T00:49:53.338Z,7.50
2018-12-26T00:52:21.394Z,10.82
2018-12-26T00:54:49.446Z,10.60
2018-12-26T00:57:17.514Z,10.20
2018-12-26T00:59:45.802Z,10.00
2018-12-26T01:02:13.947Z,9.87
2018-12-26T01:04:41.970Z,9.23
2018-12-26T01:07:10.034Z,15.57
2018-12-26T01:09:38.083Z,10.57
2018-12-26T01:12:06.146Z,15.58
2018-12-26T01:14:34.298Z,21.53
2018-12-26T01:17:02.388Z,19.10
2018-12-26T01:19:30.434Z,17.73
2018-12-26T01:21:58.500Z,17.07
2018-12-26T01:24:26.555Z,18.50
2018-12-26T01:26:54.658Z,20.90
2018-12-26T01:29:22.714Z,17.98
2018-12-26T01:31:50.770Z,14.90
2018-12-26T01:34:18.827Z,14.30
2018-12-26T01:36:46.884Z,11.43
2018-12-26T01:39:14.938Z,11.85
2018-12-26T01:41:43.039Z,10.55
2018-12-26T01:44:11.090Z,9.80
2018-12-26T01:46:39.142Z,11.43
2018-12-26T01:49:07.210Z,10.18
2018-12-26T01:51:36.061Z,11.35
2018-12-26T01:54:04.068Z,10.83
2018-12-26T01:56:32.138Z,9.93
2018-12-26T01:59:00.204Z,10.95
2018-12-26T02:01:28.872Z,8.13
2018-12-26T02:03:57.034Z,14.70
2018-12-26T02:06:25.099Z,11.80
2018-12-26T02:08:53.157Z,12.98
2018-12-26T02:11:21.276Z,12.67
2018-12-26T02:13:49.365Z,13.62
2018-12-26T02:16:17.490Z,16.67
2018-12-26T02:18:45.567Z,17.07
2018-12-26T02:21:13.683Z,19.17
2018-12-26T02:23:41.751Z,20.97
2018-12-26T02:26:09.806Z,19.05
2018-12-26T02:28:37.879Z,17.70
2018-12-26T02:31:06.322Z,21.87
2018-12-26T02:33:34.455Z,17.35
2018-12-26T02:36:02.512Z,21.80
2018-12-26T02:38:30.574Z,22.62
2018-12-26T02:40:58.626Z,21.45
2018-12-26T02:43:26.704Z,19.20
2018-12-26T02:45:54.760Z,18.35
2018-12-26T02:48:22.822Z,16.85
2018-12-26T02:50:50.875Z,18.50
2018-12-26T02:53:18.945Z,17.27
2018-12-26T02:55:46.992Z,19.60
2018-12-26T02:58:15.047Z,18.35
2018-12-26T03:00:44.147Z,15.98
2018-12-26T03:03:12.206Z,16.57
2018-12-26T03:05:40.266Z,24.65
2018-12-26T03:08:08.331Z,24.90
2018-12-26T03:10:36.384Z,22.27
2018-12-26T03:13:04.575Z,23.87
2018-12-26T03:15:32.691Z,23.62
2018-12-26T03:18:00.746Z,22.85
2018-12-26T03:20:28.830Z,20.00
2018-12-26T03:23:16.206Z,20.45
2018-12-26T06:24:22.651Z,106.25
2018-12-26T06:27:00.766Z,232.65
2018-12-26T10:12:44.610Z,62.67
2018-12-26T10:15:22.623Z,39.67
2018-12-26T13:58:35.200Z,26.52
2018-12-26T14:01:13.266Z,24.05
2018-12-26T15:26:54.007Z,30.30
2018-12-26T15:29:22.166Z,32.65
2018-12-26T15:31:50.330Z,27.75
2018-12-26T15:34:18.710Z,32.83
2018-12-26T15:36:46.821Z,30.32
2018-12-26T15:39:14.871Z,30.17
2018-12-26T15:41:42.954Z,26.80
2018-12-26T15:44:11.007Z,33.23
2018-12-26T15:46:39.054Z,31.82
2018-12-26T15:49:07.147Z,31.52
2018-12-26T15:51:36.082Z,29.05
2018-12-26T15:54:04.220Z,33.38
2018-12-26T15:56:32.299Z,30.05
2018-12-26T15:59:00.359Z,31.85
2018-12-26T16:01:28.418Z,30.20
2018-12-26T16:03:56.474Z,30.00
2018-12-26T16:06:24.548Z,31.85
2018-12-26T16:08:52.613Z,38.40
2018-12-26T16:11:20.687Z,31.65
2018-12-26T16:13:48.744Z,30.92
2018-12-26T16:16:16.812Z,37.33
2018-12-26T16:18:44.870Z,30.52
2018-12-26T16:21:12.930Z,34.05
2018-12-26T16:23:41.011Z,35.68
2018-12-26T16:26:09.091Z,32.55
2018-12-26T16:28:37.152Z,29.95
2018-12-26T16:31:05.215Z,39.30
2018-12-26T16:33:33.270Z,31.37
2018-12-26T16:36:01.343Z,35.38
2018-12-26T16:38:29.395Z,36.17
2018-12-26T16:40:57.463Z,31.37
2018-12-26T16:43:25.510Z,31.45
2018-12-26T16:45:53.615Z,35.38
2018-12-26T16:48:21.691Z,33.35
2018-12-26T16:50:49.766Z,30.00
2018-12-26T16:53:17.818Z,36.45
2018-12-26T16:55:45.870Z,34.13
2018-12-26T16:58:13.942Z,36.60
2018-12-26T17:00:42.552Z,35.30
2018-12-26T17:03:10.619Z,35.00
2018-12-26T17:05:39.187Z,30.90
2018-12-26T17:08:07.202Z,42.13
2018-12-26T17:10:35.258Z,44.77
2018-12-26T17:13:03.337Z,35.05
2018-12-26T17:15:31.382Z,34.33
2018-12-26T17:17:59.431Z,43.83
2018-12-26T17:20:27.519Z,34.63
2018-12-26T17:22:55.587Z,38.00
2018-12-26T17:25:23.662Z,39.88
2018-12-26T17:27:51.718Z,34.45
2018-12-26T17:30:19.786Z,37.15
2018-12-26T17:32:47.846Z,38.98
2018-12-26T17:35:15.902Z,37.50
2018-12-26T17:37:43.978Z,38.78
2018-12-26T17:40:12.026Z,40.00
2018-12-26T17:42:40.087Z,42.98
2018-12-26T17:45:08.162Z,37.60
2018-12-26T17:47:36.215Z,43.60
2018-12-26T17:50:22.001Z,46.42
2018-12-26T17:52:50.067Z,51.23
2018-12-26T17:55:25.401Z,46.70
2018-12-26T17:57:53.473Z,40.15
2018-12-26T18:00:21.533Z,43.30
2018-12-26T18:02:49.631Z,48.95
2018-12-26T18:05:17.678Z,47.88
2018-12-26T18:07:45.735Z,47.98
2018-12-26T18:10:13.802Z,46.48
2018-12-26T18:12:41.868Z,40.98
2018-12-26T18:15:09.982Z,47.70
2018-12-26T18:17:38.079Z,46.60
2018-12-26T18:20:06.631Z,46.85
2018-12-26T18:22:34.978Z,51.08
2018-12-26T18:25:03.127Z,42.73
2018-12-26T18:27:31.174Z,50.50
2018-12-26T18:29:59.231Z,46.15
2018-12-26T18:32:27.307Z,46.33
2018-12-26T18:34:55.367Z,46.98
2018-12-26T18:37:23.426Z,44.73
2018-12-26T18:39:51.503Z,45.73
2018-12-26T18:42:19.570Z,46.75
2018-12-26T18:44:47.654Z,52.05
2018-12-26T18:47:15.707Z,49.48
2018-12-26T18:49:43.758Z,54.13
2018-12-26T18:52:15.509Z,54.15
2018-12-26T18:54:43.514Z,57.88
2018-12-26T18:57:11.595Z,48.83
2018-12-26T18:59:39.663Z,48.80
2018-12-26T19:02:07.717Z,52.27
2018-12-26T19:04:36.231Z,50.08
2018-12-26T19:07:04.332Z,51.18
2018-12-26T19:09:32.459Z,45.78
2018-12-26T19:12:00.528Z,48.45
2018-12-26T19:14:28.591Z,45.95
2018-12-26T19:16:56.679Z,47.05
2018-12-26T19:19:24.761Z,48.20
2018-12-26T19:21:52.853Z,47.13
2018-12-26T19:24:20.919Z,46.35
2018-12-26T19:26:49.152Z,45.17
2018-12-26T19:29:17.856Z,50.65
2018-12-26T19:31:45.935Z,43.58
2018-12-26T19:34:13.994Z,47.48
2018-12-26T19:36:42.055Z,54.85
2018-12-26T19:39:10.134Z,54.73
2018-12-26T19:41:38.189Z,49.83
2018-12-26T19:44:06.242Z,50.12
2018-12-26T19:46:34.375Z,45.08
2018-12-26T19:49:02.426Z,47.48
2018-12-26T19:51:31.920Z,47.53
2018-12-26T19:54:00.170Z,48.75
2018-12-26T19:56:28.263Z,41.73
2018-12-26T19:58:56.323Z,45.38
2018-12-26T20:01:24.375Z,43.70
2018-12-26T20:03:52.427Z,44.83
2018-12-26T20:06:22.161Z,45.03
2018-12-26T20:08:50.279Z,49.15
2018-12-26T20:11:18.339Z,44.05
2018-12-26T20:13:46.398Z,48.02
2018-12-26T20:16:14.455Z,44.10
2018-12-26T20:18:42.516Z,44.58
2018-12-26T20:21:10.601Z,43.13
2018-12-26T20:23:38.654Z,47.20
2018-12-26T20:26:06.719Z,46.90
2018-12-26T20:28:34.874Z,45.50
2018-12-26T20:31:02.922Z,57.73
2018-12-26T20:33:30.974Z,54.80
2018-12-26T20:35:59.076Z,52.38
2018-12-26T20:38:27.130Z,48.10
2018-12-26T20:40:55.244Z,50.00
2018-12-26T20:43:23.315Z,54.18
2018-12-26T20:45:51.382Z,54.40
2018-12-26T20:48:19.482Z,53.35
2018-12-26T20:50:47.541Z,48.25
2018-12-26T20:53:15.603Z,50.03
2018-12-26T20:55:43.670Z,65.57
2018-12-26T20:58:11.747Z,50.80
2018-12-26T21:00:39.807Z,54.00
2018-12-26T21:03:07.882Z,46.75
2018-12-26T21:05:35.930Z,48.75
2018-12-26T21:08:04.047Z,53.33
2018-12-26T21:10:32.083Z,50.48
2018-12-26T21:13:00.139Z,52.13
2018-12-26T21:15:28.194Z,55.90
2018-12-26T21:17:56.274Z,57.08
2018-12-26T21:20:24.334Z,54.90
2018-12-26T21:22:52.414Z,58.05
2018-12-26T21:25:20.460Z,54.48
2018-12-26T21:27:48.514Z,56.73
2018-12-26T21:30:16.572Z,52.38
2018-12-26T21:35:51.879Z,60.05
2018-12-26T21:38:39.282Z,51.10
2018-12-26T23:34:07.434Z,41.08
2018-12-26T23:36:54.834Z,44.53
2018-12-26T23:39:42.240Z,46.33
